Time;durP1;ratioP1;P1;durP2;ratioP2;P2;SDS_P1;SDS_P2;PMS_P1;PMS_P2;Temp;Humidity;BMP_temperature;BMP_pressure;BME280_temperature;BME280_humidity;BME280_pressure;Samples;Min_cycle;Max_cycle;Signal;HPM_P1;HPM_P2
2021/08/17 00:01:39;;;;;;;2.70;1.30;;;18.90;59.70;;;;;;5071894;28;20036;-75
2021/08/17 00:04:04;;;;;;;2.13;1.13;;;18.80;59.70;;;;;;5071686;28;20031;-75
2021/08/17 00:06:31;;;;;;;2.83;1.15;;;18.80;59.80;;;;;;5070914;28;20033;-75
2021/08/17 00:08:56;;;;;;;2.42;1.35;;;18.80;59.70;;;;;;5055757;28;20027;-75
2021/08/17 00:11:22;;;;;;;2.63;1.15;;;18.80;59.80;;;;;;5072103;28;20112;-76
2021/08/17 00:13:51;;;;;;;1.85;1.08;;;18.70;59.70;;;;;;5055665;28;20025;-75
2021/08/17 00:16:16;;;;;;;2.55;1.20;;;18.70;59.70;;;;;;5055465;28;20492;-75
2021/08/17 00:18:43;;;;;;;2.08;0.88;;;18.70;59.80;;;;;;5071574;28;20055;-75
2021/08/17 00:21:08;;;;;;;2.35;1.30;;;18.70;59.80;;;;;;5071782;28;20031;-75
2021/08/17 00:23:34;;;;;;;3.08;1.25;;;18.70;59.80;;;;;;5054108;28;20036;-75
2021/08/17 00:26:00;;;;;;;2.15;1.02;;;18.70;59.80;;;;;;5072951;28;20472;-76
2021/08/17 00:28:27;;;;;;;3.63;1.40;;;18.70;59.80;;;;;;5071357;28;20024;-75
2021/08/17 00:30:53;;;;;;;2.67;1.30;;;18.70;59.90;;;;;;5072664;28;20043;-76
2021/08/17 00:33:18;;;;;;;2.05;1.05;;;18.60;59.80;;;;;;5054735;28;20542;-76
2021/08/17 00:35:44;;;;;;;1.98;1.33;;;18.60;60.50;;;;;;5054385;28;20051;-75
2021/08/17 00:38:14;;;;;;;2.15;1.00;;;18.60;59.90;;;;;;5071331;28;20388;-75
2021/08/17 00:40:42;;;;;;;3.38;1.30;;;18.60;59.90;;;;;;5070578;28;20029;-75
2021/08/17 00:43:10;;;;;;;3.05;1.33;;;18.50;59.90;;;;;;5054743;28;20058;-74
2021/08/17 00:45:36;;;;;;;1.90;1.17;;;18.50;60.00;;;;;;5054447;28;20484;-75
2021/08/17 00:48:02;;;;;;;1.20;0.90;;;18.50;59.90;;;;;;5054985;28;20081;-75
2021/08/17 00:50:31;;;;;;;1.83;0.90;;;18.50;60.00;;;;;;5071026;28;20020;-76
2021/08/17 00:52:57;;;;;;;2.90;1.30;;;18.50;60.00;;;;;;5038021;28;20111;-75
2021/08/17 00:55:24;;;;;;;2.55;1.27;;;18.40;60.00;;;;;;5054279;28;20380;-75
2021/08/17 00:57:49;;;;;;;1.15;0.95;;;18.40;60.00;;;;;;5054067;28;20086;-75
2021/08/17 01:00:16;;;;;;;2.22;1.30;;;18.40;60.00;;;;;;5054235;28;20195;-76
2021/08/17 01:02:44;;;;;;;2.40;1.30;;;18.40;60.00;;;;;;5054517;28;20127;-75
2021/08/17 01:05:11;;;;;;;2.00;1.10;;;18.40;60.10;;;;;;5054177;28;20373;-76
2021/08/17 01:07:38;;;;;;;2.72;1.17;;;18.40;60.20;;;;;;5070222;28;20043;-75
2021/08/17 01:10:05;;;;;;;2.05;1.20;;;18.30;60.10;;;;;;5053768;28;20052;-75
2021/08/17 01:12:33;;;;;;;1.60;1.10;;;18.30;60.10;;;;;;5054403;28;20394;-76
2021/08/17 01:14:59;;;;;;;2.30;1.20;;;18.30;60.10;;;;;;5061065;28;20028;-74
2021/08/17 01:17:26;;;;;;;2.28;1.40;;;18.30;60.20;;;;;;5071464;28;20031;-74
2021/08/17 01:19:53;;;;;;;3.22;1.50;;;18.20;60.10;;;;;;5053887;28;20532;-75
2021/08/17 01:22:19;;;;;;;2.13;1.33;;;18.30;60.20;;;;;;5054148;28;20025;-75
2021/08/17 01:24:45;;;;;;;2.63;1.40;;;18.20;60.20;;;;;;5070739;28;20048;-76
2021/08/17 01:27:12;;;;;;;2.63;1.30;;;18.20;60.20;;;;;;5071671;28;20060;-75
2021/08/17 01:29:42;;;;;;;2.22;1.30;;;18.20;60.30;;;;;;5053927;28;20419;-76
2021/08/17 01:32:12;;;;;;;1.40;1.10;;;18.20;60.30;;;;;;5071738;28;20032;-75
2021/08/17 01:34:39;;;;;;;1.42;1.10;;;18.20;60.30;;;;;;5070622;28;20045;-75
2021/08/17 01:37:05;;;;;;;1.80;1.25;;;18.10;60.30;;;;;;5071552;28;20031;-75
2021/08/17 01:39:31;;;;;;;2.38;1.35;;;18.10;60.30;;;;;;5069839;28;20036;-75
2021/08/17 01:41:57;;;;;;;2.10;1.40;;;18.10;60.40;;;;;;5053407;28;20537;-75
2021/08/17 01:44:23;;;;;;;2.28;1.20;;;18.10;60.40;;;;;;5071890;28;20025;-76
2021/08/17 01:46:48;;;;;;;2.85;1.23;;;18.10;60.40;;;;;;5070618;28;20072;-75
2021/08/17 01:49:17;;;;;;;1.85;1.38;;;18.10;60.40;;;;;;5069860;28;20044;-75
2021/08/17 01:51:44;;;;;;;2.80;1.48;;;18.10;60.40;;;;;;5071439;28;20539;-75
2021/08/17 01:54:12;;;;;;;2.72;1.40;;;18.00;60.40;;;;;;5069614;28;20027;-74
2021/08/17 01:56:38;;;;;;;1.88;1.17;;;18.00;60.40;;;;;;5070741;28;20091;-75
2021/08/17 01:59:04;;;;;;;1.17;1.08;;;18.00;60.50;;;;;;5053499;28;20036;-75
2021/08/17 02:01:30;;;;;;;2.03;1.25;;;18.00;60.60;;;;;;5052687;28;20737;-75
2021/08/17 02:03:57;;;;;;;2.22;1.45;;;18.00;60.50;;;;;;5071437;28;20021;-75
2021/08/17 02:06:22;;;;;;;2.08;1.17;;;17.90;60.50;;;;;;5052587;28;20046;-76
2021/08/17 02:08:48;;;;;;;2.03;1.17;;;17.90;60.50;;;;;;5070090;28;20036;-75
2021/08/17 02:11:14;;;;;;;2.67;1.45;;;17.90;60.60;;;;;;5053666;28;20028;-75
2021/08/17 02:13:40;;;;;;;2.20;1.20;;;17.90;60.60;;;;;;5052839;28;20055;-75
2021/08/17 02:16:06;;;;;;;2.33;1.20;;;17.80;60.60;;;;;;5052997;28;20453;-74
2021/08/17 02:18:33;;;;;;;2.53;1.50;;;17.80;60.60;;;;;;5069932;28;20549;-75
2021/08/17 02:20:59;;;;;;;2.45;1.30;;;17.80;60.60;;;;;;5073972;28;20036;-75
2021/08/17 02:23:26;;;;;;;2.75;1.60;;;17.80;60.70;;;;;;5073793;28;20079;-75
2021/08/17 02:25:52;;;;;;;3.58;1.60;;;17.80;60.70;;;;;;5075875;28;20030;-74
2021/08/17 02:28:19;;;;;;;2.08;1.23;;;17.80;60.80;;;;;;5061617;28;20032;-75
2021/08/17 02:30:46;;;;;;;2.30;1.30;;;17.80;60.70;;;;;;5076037;28;20122;-74
2021/08/17 02:33:12;;;;;;;2.67;1.35;;;17.80;60.80;;;;;;5057449;28;20505;-75
2021/08/17 02:35:38;;;;;;;2.40;1.42;;;17.70;61.40;;;;;;5057348;28;20040;-75
2021/08/17 02:38:05;;;;;;;2.72;1.40;;;17.70;60.90;;;;;;5056093;28;20067;-75
2021/08/17 02:40:31;;;;;;;2.58;1.52;;;17.70;60.80;;;;;;5073573;28;20067;-75
2021/08/17 02:42:57;;;;;;;2.85;1.50;;;17.70;60.90;;;;;;5073384;28;20579;-75
2021/08/17 02:45:23;;;;;;;2.47;1.25;;;17.70;60.90;;;;;;5073406;28;20111;-76
2021/08/17 02:47:49;;;;;;;2.58;1.50;;;17.60;60.90;;;;;;5056505;28;20060;-75
2021/08/17 02:50:14;;;;;;;2.53;1.50;;;17.60;60.90;;;;;;5057138;28;20071;-75
2021/08/17 02:52:40;;;;;;;1.52;1.13;;;17.60;60.90;;;;;;5072676;28;20033;-75
2021/08/17 02:55:07;;;;;;;2.63;1.50;;;17.60;60.90;;;;;;5072896;28;20119;-75
2021/08/17 02:57:33;;;;;;;3.00;1.70;;;17.60;60.90;;;;;;5056409;28;20182;-75
2021/08/17 02:59:59;;;;;;;2.45;1.23;;;17.50;61.00;;;;;;5073261;28;20033;-75
2021/08/17 03:02:24;;;;;;;3.67;1.60;;;17.50;61.00;;;;;;5056087;28;20035;-75
2021/08/17 03:04:50;;;;;;;3.25;1.75;;;17.50;61.10;;;;;;5072805;28;20389;-75
2021/08/17 03:07:16;;;;;;;3.33;1.60;;;17.50;61.10;;;;;;5073035;28;20484;-76
2021/08/17 03:09:42;;;;;;;2.28;1.40;;;17.50;61.10;;;;;;5073767;28;20024;-75
2021/08/17 03:12:08;;;;;;;2.80;1.60;;;17.50;61.20;;;;;;5056804;28;20040;-74
2021/08/17 03:14:33;;;;;;;3.47;1.60;;;17.50;61.20;;;;;;5055669;28;20036;-75
2021/08/17 03:16:59;;;;;;;2.40;1.40;;;17.40;61.20;;;;;;5056179;28;20123;-75
2021/08/17 03:19:25;;;;;;;2.60;1.45;;;17.40;61.20;;;;;;5074309;28;20128;-75
2021/08/17 03:21:51;;;;;;;3.00;1.60;;;17.40;61.20;;;;;;5072359;28;20028;-75
2021/08/17 03:24:16;;;;;;;3.13;1.70;;;17.40;61.30;;;;;;5073154;28;20484;-75
2021/08/17 03:26:42;;;;;;;3.00;1.55;;;17.40;61.30;;;;;;5072152;28;20473;-74
2021/08/17 03:29:08;;;;;;;2.63;1.50;;;17.40;61.40;;;;;;5055284;28;20024;-75
2021/08/17 03:31:34;;;;;;;2.80;1.63;;;17.30;61.30;;;;;;5055184;28;20032;-76
2021/08/17 03:33:59;;;;;;;2.70;1.50;;;17.30;61.30;;;;;;5056088;28;20070;-75
2021/08/17 03:36:25;;;;;;;2.42;1.60;;;17.30;61.40;;;;;;5056376;28;20036;-75
2021/08/17 03:38:51;;;;;;;2.38;1.40;;;17.30;61.40;;;;;;5055142;28;20045;-74
2021/08/17 03:41:16;;;;;;;2.92;1.50;;;17.30;61.40;;;;;;5038726;28;20419;-76
2021/08/17 03:43:42;;;;;;;2.53;1.50;;;17.30;61.50;;;;;;5072481;28;20140;-75
2021/08/17 03:46:08;;;;;;;4.03;1.50;;;17.30;61.50;;;;;;5055909;28;20024;-77
2021/08/17 03:48:34;;;;;;;3.03;1.85;;;17.30;61.50;;;;;;5072061;28;20041;-76
2021/08/17 03:51:00;;;;;;;2.08;1.67;;;17.20;61.50;;;;;;5055817;28;20068;-75
2021/08/17 03:53:27;;;;;;;2.42;1.52;;;17.20;61.50;;;;;;5072385;28;20028;-75
2021/08/17 03:55:53;;;;;;;2.08;1.60;;;17.20;61.60;;;;;;5071994;28;20032;-75
2021/08/17 03:58:19;;;;;;;3.05;1.80;;;17.20;61.60;;;;;;5071995;28;20048;-75
2021/08/17 04:00:44;;;;;;;3.13;1.60;;;17.20;61.70;;;;;;5054770;28;20123;-76
2021/08/17 04:03:10;;;;;;;2.80;1.63;;;17.20;61.70;;;;;;5055349;28;20514;-75
2021/08/17 04:05:36;;;;;;;2.65;1.80;;;17.20;61.80;;;;;;5071784;28;20089;-76
2021/08/17 04:08:04;;;;;;;2.15;1.48;;;17.10;61.70;;;;;;5054754;28;20094;-75
2021/08/17 04:10:30;;;;;;;2.38;1.75;;;17.10;61.80;;;;;;5071664;28;20030;-75
2021/08/17 04:12:56;;;;;;;2.63;1.70;;;17.10;61.80;;;;;;5071270;28;20025;-74
2021/08/17 04:15:22;;;;;;;3.03;1.83;;;17.10;61.90;;;;;;5071618;28;20021;-75
2021/08/17 04:17:47;;;;;;;2.60;1.45;;;17.10;61.90;;;;;;5070995;28;20028;-75
2021/08/17 04:20:14;;;;;;;3.92;2.03;;;17.10;61.90;;;;;;5072047;28;20606;-76
2021/08/17 04:22:40;;;;;;;3.03;1.80;;;17.10;62.00;;;;;;5070876;28;20082;-75
2021/08/17 04:25:07;;;;;;;2.88;1.60;;;17.10;62.00;;;;;;5071739;28;20036;-75
2021/08/17 04:27:34;;;;;;;2.28;1.83;;;17.10;62.10;;;;;;5071349;28;20067;-75
2021/08/17 04:30:00;;;;;;;3.25;1.90;;;17.10;62.10;;;;;;5071278;28;20033;-75
2021/08/17 04:32:25;;;;;;;2.92;1.75;;;17.00;62.10;;;;;;5072729;28;20028;-74
2021/08/17 04:34:51;;;;;;;4.00;1.85;;;17.00;62.10;;;;;;5071157;28;20033;-75
2021/08/17 04:37:17;;;;;;;3.70;1.58;;;17.00;62.20;;;;;;5070470;28;20025;-75
2021/08/17 04:39:42;;;;;;;2.85;1.77;;;17.00;62.20;;;;;;5054166;28;20055;-75
2021/08/17 04:42:08;;;;;;;2.10;1.55;;;17.00;62.20;;;;;;5053443;28;20037;-75
2021/08/17 04:44:35;;;;;;;2.97;1.95;;;16.90;62.20;;;;;;5072114;28;20036;-77
2021/08/17 04:47:01;;;;;;;3.35;1.90;;;17.00;62.30;;;;;;5072636;28;20051;-76
2021/08/17 04:49:27;;;;;;;2.97;1.70;;;17.00;62.40;;;;;;5071773;28;20021;-74
2021/08/17 04:51:52;;;;;;;2.95;1.70;;;17.00;62.40;;;;;;5054351;28;20024;-75
2021/08/17 04:54:18;;;;;;;2.00;1.65;;;17.00;62.40;;;;;;5070916;28;20036;-75
2021/08/17 04:56:44;;;;;;;3.60;1.80;;;17.00;62.50;;;;;;5072092;28;20028;-75
2021/08/17 04:59:10;;;;;;;3.30;1.83;;;17.00;62.50;;;;;;5037557;28;20048;-76
2021/08/17 05:01:36;;;;;;;3.33;1.90;;;17.00;62.50;;;;;;5037920;28;20482;-76
2021/08/17 05:04:04;;;;;;;3.17;2.00;;;17.00;62.60;;;;;;5071088;28;20063;-75
2021/08/17 05:06:29;;;;;;;4.15;2.20;;;16.90;62.50;;;;;;5072004;28;20025;-75
2021/08/17 05:08:55;;;;;;;3.33;2.08;;;17.00;62.60;;;;;;5053917;28;20035;-75
2021/08/17 05:11:21;;;;;;;3.42;1.90;;;16.90;62.60;;;;;;5070993;28;20051;-75
2021/08/17 05:13:47;;;;;;;3.80;2.20;;;16.90;62.60;;;;;;5054089;28;20035;-75
2021/08/17 05:16:12;;;;;;;3.10;1.85;;;16.90;62.60;;;;;;5071942;28;20024;-76
2021/08/17 05:18:38;;;;;;;3.33;1.85;;;17.00;62.70;;;;;;5069917;28;20039;-75
2021/08/17 05:21:04;;;;;;;2.97;1.90;;;16.90;62.70;;;;;;5071191;28;20535;-76
2021/08/17 05:23:30;;;;;;;4.78;2.00;;;16.90;62.80;;;;;;5071115;28;20393;-75
2021/08/17 05:25:55;;;;;;;3.75;2.10;;;16.90;62.80;;;;;;5037089;28;20487;-75
2021/08/17 05:28:22;;;;;;;2.90;1.83;;;16.90;63.00;;;;;;5070282;28;20032;-75
2021/08/17 05:30:48;;;;;;;4.38;2.35;;;16.90;62.80;;;;;;5053671;28;20116;-75
2021/08/17 05:33:14;;;;;;;3.67;2.05;;;17.00;62.90;;;;;;5053994;28;20043;-75
2021/08/17 05:35:42;;;;;;;3.92;2.40;;;16.90;62.90;;;;;;5069853;28;20033;-76
2021/08/17 05:38:08;;;;;;;3.97;2.40;;;16.90;62.90;;;;;;5070231;28;20438;-75
2021/08/17 05:40:34;;;;;;;3.92;2.50;;;17.00;62.90;;;;;;5070911;28;20081;-75
2021/08/17 05:43:02;;;;;;;4.40;2.70;;;16.90;62.90;;;;;;5071269;28;20029;-75
2021/08/17 05:45:27;;;;;;;5.13;2.80;;;17.00;63.00;;;;;;5036294;28;20043;-75
2021/08/17 05:47:53;;;;;;;4.20;2.50;;;17.00;63.00;;;;;;5053542;28;20024;-75
2021/08/17 05:50:19;;;;;;;4.60;2.53;;;17.00;63.00;;;;;;5086192;28;20150;-75
2021/08/17 05:52:45;;;;;;;4.85;2.97;;;17.00;63.10;;;;;;5069664;28;20040;-76
2021/08/17 05:55:12;;;;;;;4.32;2.67;;;17.00;63.10;;;;;;5053840;28;20436;-75
2021/08/17 05:57:38;;;;;;;5.40;2.90;;;17.00;63.10;;;;;;5071110;28;20057;-75
2021/08/17 06:00:06;;;;;;;5.43;2.92;;;17.00;63.10;;;;;;5071107;28;20028;-75
2021/08/17 06:02:37;;;;;;;4.82;2.70;;;17.00;63.20;;;;;;5069932;28;20028;-75
2021/08/17 06:05:03;;;;;;;5.22;3.08;;;17.00;63.20;;;;;;5069738;28;20031;-75
2021/08/17 06:07:29;;;;;;;5.65;3.03;;;17.00;63.20;;;;;;5053796;28;20431;-75
2021/08/17 06:09:55;;;;;;;6.20;3.50;;;17.00;63.20;;;;;;5069951;28;20029;-75
2021/08/17 06:12:21;;;;;;;5.20;2.85;;;17.00;63.20;;;;;;5070275;28;20025;-75
2021/08/17 06:14:47;;;;;;;5.60;3.10;;;17.00;63.20;;;;;;5069222;28;20078;-75
2021/08/17 06:17:12;;;;;;;5.88;3.60;;;17.00;63.30;;;;;;5053336;28;20455;-76
2021/08/17 06:19:38;;;;;;;5.55;3.25;;;17.00;63.30;;;;;;5053089;28;20093;-75
2021/08/17 06:22:04;;;;;;;6.22;3.67;;;17.10;63.40;;;;;;5069367;28;20029;-75
2021/08/17 06:24:30;;;;;;;6.68;3.75;;;17.10;63.40;;;;;;5069228;28;20086;-75
2021/08/17 06:26:55;;;;;;;6.50;3.97;;;17.10;63.40;;;;;;5069296;28;20146;-74
2021/08/17 06:29:21;;;;;;;5.38;3.33;;;17.10;63.40;;;;;;5053253;28;20039;-74
2021/08/17 06:31:47;;;;;;;5.88;3.50;;;17.10;63.40;;;;;;5069182;28;20534;-75
2021/08/17 06:34:13;;;;;;;6.30;3.60;;;17.10;63.40;;;;;;5053085;28;20032;-75
2021/08/17 06:36:40;;;;;;;6.20;3.90;;;17.20;63.40;;;;;;5070682;28;20503;-75
2021/08/17 06:39:07;;;;;;;5.93;3.45;;;17.10;63.40;;;;;;5068231;28;20487;-75
2021/08/17 06:41:33;;;;;;;6.55;3.80;;;17.20;63.50;;;;;;5069599;28;20024;-74
2021/08/17 06:43:59;;;;;;;6.25;3.85;;;17.20;63.50;;;;;;5069152;28;20095;-75
2021/08/17 06:46:26;;;;;;;6.95;3.75;;;17.20;63.50;;;;;;5069865;28;20044;-75
2021/08/17 06:48:52;;;;;;;5.72;3.92;;;17.20;63.50;;;;;;5068942;28;20054;-76
2021/08/17 06:51:18;;;;;;;5.60;3.60;;;17.30;63.50;;;;;;5069727;28;20021;-75
2021/08/17 06:53:43;;;;;;;6.72;4.07;;;17.30;63.50;;;;;;5052192;28;20064;-76
2021/08/17 06:56:09;;;;;;;6.47;3.67;;;17.30;63.50;;;;;;5069170;28;20025;-75
2021/08/17 06:58:35;;;;;;;6.38;3.58;;;17.30;63.50;;;;;;5053020;28;20132;-75
2021/08/17 07:01:04;;;;;;;6.47;3.67;;;17.40;63.60;;;;;;5068574;28;20119;-75
2021/08/17 07:03:30;;;;;;;6.85;3.55;;;17.40;63.60;;;;;;5078539;28;20400;-75
2021/08/17 07:05:56;;;;;;;7.00;4.50;;;17.40;63.60;;;;;;5038620;28;20024;-75
2021/08/17 07:08:22;;;;;;;7.47;4.10;;;17.40;63.60;;;;;;5056542;28;20105;-75
2021/08/17 07:10:49;;;;;;;6.90;4.18;;;17.40;63.60;;;;;;5073591;28;20028;-76
2021/08/17 07:13:15;;;;;;;6.90;4.28;;;17.50;63.60;;;;;;5072915;28;20029;-75
2021/08/17 07:15:41;;;;;;;7.55;4.18;;;17.50;63.60;;;;;;5056375;28;20039;-75
2021/08/17 07:18:07;;;;;;;7.00;4.15;;;17.50;63.60;;;;;;5073584;28;20029;-75
2021/08/17 07:20:34;;;;;;;6.82;4.18;;;17.50;63.60;;;;;;5056327;28;20036;-75
2021/08/17 07:22:59;;;;;;;7.20;4.25;;;17.60;63.70;;;;;;5073685;28;20039;-74
2021/08/17 07:25:25;;;;;;;6.93;4.07;;;17.60;63.60;;;;;;5055879;28;20028;-75
2021/08/17 07:27:51;;;;;;;6.75;4.13;;;17.60;63.60;;;;;;5072585;28;20033;-77
2021/08/17 07:30:17;;;;;;;6.80;4.05;;;17.60;63.60;;;;;;5073757;28;20020;-75
2021/08/17 07:32:45;;;;;;;6.45;4.03;;;17.60;63.60;;;;;;5074244;28;20036;-76
2021/08/17 07:35:13;;;;;;;7.93;4.55;;;17.70;63.60;;;;;;5055155;28;20029;-75
2021/08/17 07:37:41;;;;;;;7.25;4.07;;;17.70;63.60;;;;;;5072666;28;20036;-75
2021/08/17 07:40:07;;;;;;;6.03;4.03;;;17.70;63.60;;;;;;5072114;28;20078;-75
2021/08/17 07:42:33;;;;;;;7.07;4.60;;;17.80;63.70;;;;;;5056305;28;20036;-75
2021/08/17 07:44:59;;;;;;;6.57;4.20;;;17.80;63.70;;;;;;5055044;28;20558;-77
2021/08/17 07:47:25;;;;;;;6.82;4.07;;;17.80;63.70;;;;;;5072269;28;20044;-75
2021/08/17 07:49:51;;;;;;;7.72;4.30;;;17.80;63.70;;;;;;5072036;28;20406;-76
2021/08/17 07:52:17;;;;;;;7.03;4.00;;;17.80;63.60;;;;;;5055349;28;20123;-76
2021/08/17 07:54:43;;;;;;;7.18;4.28;;;17.90;63.70;;;;;;5055110;28;20032;-75
2021/08/17 07:57:08;;;;;;;7.13;4.45;;;17.90;63.70;;;;;;5055088;28;20060;-74
2021/08/17 07:59:34;;;;;;;7.03;4.15;;;17.90;63.60;;;;;;5072144;28;20033;-75
2021/08/17 08:02:00;;;;;;;7.28;4.43;;;18.00;63.70;;;;;;5055258;28;20086;-75
2021/08/17 08:04:26;;;;;;;7.25;4.15;;;18.00;63.70;;;;;;5055288;28;20056;-76
2021/08/17 08:06:52;;;;;;;7.15;4.07;;;18.00;63.60;;;;;;5073612;28;20096;-76
2021/08/17 08:09:17;;;;;;;6.75;4.25;;;18.10;63.70;;;;;;5071604;28;20029;-75
2021/08/17 08:11:43;;;;;;;6.10;4.05;;;18.10;63.70;;;;;;5055407;28;20032;-75
2021/08/17 08:14:09;;;;;;;6.30;4.07;;;18.10;63.60;;;;;;5054637;28;20040;-76
2021/08/17 08:16:35;;;;;;;7.10;4.35;;;18.10;63.60;;;;;;5073603;28;20029;-75
2021/08/17 08:19:02;;;;;;;7.30;4.40;;;18.20;63.60;;;;;;5054889;28;20519;-75
2021/08/17 08:21:28;;;;;;;7.78;4.55;;;18.20;63.60;;;;;;5071867;28;20037;-74
2021/08/17 08:23:53;;;;;;;7.70;4.60;;;18.20;63.60;;;;;;5071393;28;20039;-75
2021/08/17 08:26:19;;;;;;;7.05;4.45;;;18.30;63.60;;;;;;5071309;28;20081;-74
2021/08/17 08:28:45;;;;;;;6.55;4.15;;;18.30;63.60;;;;;;5038306;28;20442;-75
2021/08/17 08:31:11;;;;;;;6.55;3.95;;;18.30;63.60;;;;;;5071083;28;20025;-77
2021/08/17 08:33:36;;;;;;;7.28;4.10;;;18.40;64.10;;;;;;5080358;28;20036;-75
2021/08/17 08:36:02;;;;;;;6.53;4.18;;;18.40;63.60;;;;;;5054667;28;20082;-75
2021/08/17 08:38:28;;;;;;;7.38;4.72;;;18.40;63.60;;;;;;5038019;28;20040;-75
2021/08/17 08:40:54;;;;;;;6.70;4.20;;;18.50;63.70;;;;;;5054658;28;20540;-77
2021/08/17 08:43:21;;;;;;;6.93;4.28;;;18.50;63.70;;;;;;5054508;28;20465;-75
2021/08/17 08:45:47;;;;;;;7.07;3.92;;;18.50;63.70;;;;;;5057939;28;20473;-75
2021/08/17 08:48:17;;;;;;;7.07;4.47;;;18.60;63.70;;;;;;5072230;28;20058;-76
2021/08/17 08:50:44;;;;;;;7.22;4.07;;;18.60;63.70;;;;;;5070820;28;20044;-75
2021/08/17 08:53:11;;;;;;;6.07;3.83;;;18.60;63.60;;;;;;5070906;28;20032;-76
2021/08/17 08:55:37;;;;;;;6.50;3.72;;;18.60;63.60;;;;;;5070816;28;20078;-75
2021/08/17 08:58:03;;;;;;;6.38;4.10;;;18.70;63.60;;;;;;5036906;28;20493;-75
2021/08/17 09:00:29;;;;;;;6.03;3.60;;;18.70;63.60;;;;;;5071137;28;20048;-75
2021/08/17 09:02:55;;;;;;;6.45;4.05;;;18.70;63.60;;;;;;5054578;28;20082;-75
2021/08/17 09:05:22;;;;;;;7.43;4.35;;;18.70;63.60;;;;;;5071171;28;20029;-76
2021/08/17 09:07:48;;;;;;;7.13;3.78;;;18.80;63.60;;;;;;5071795;28;20612;-75
2021/08/17 09:10:19;;;;;;;7.72;4.22;;;18.80;64.20;;;;;;5037205;28;20027;-76
2021/08/17 09:12:54;;;;;;;6.90;4.00;;;18.90;63.60;;;;;;5053695;28;20450;-75
2021/08/17 09:15:38;;;;;;;6.68;4.00;;;18.90;63.60;;;;;;5071518;28;20021;-75
2021/08/17 09:18:09;;;;;;;6.57;3.97;;;18.90;63.60;;;;;;5036690;28;20037;-74
2021/08/17 09:20:39;;;;;;;6.65;3.92;;;18.90;63.40;;;;;;5072050;28;20082;-75
2021/08/17 09:23:34;;;;;;;7.05;3.75;;;18.90;63.40;;;;;;5071578;28;20024;-75
2021/08/17 09:26:19;;;;;;;6.45;3.17;;;18.90;63.50;;;;;;5053459;28;20457;-75
2021/08/17 09:28:52;;;;;;;6.47;3.58;;;19.00;63.40;;;;;;5071304;28;20499;-75
2021/08/17 09:31:40;;;;;;;7.45;3.60;;;19.00;63.40;;;;;;5071209;28;20024;-76
2021/08/17 09:34:09;;;;;;;6.38;3.70;;;19.00;63.50;;;;;;5070458;28;20103;-75
2021/08/17 09:36:40;;;;;;;5.65;3.60;;;19.00;63.40;;;;;;5070453;28;20035;-75
2021/08/17 09:39:07;;;;;;;6.50;3.72;;;19.00;63.40;;;;;;5069514;28;20033;-75
2021/08/17 09:41:33;;;;;;;5.93;3.17;;;19.10;63.40;;;;;;5070178;28;20108;-75
2021/08/17 09:44:02;;;;;;;6.13;3.78;;;19.10;63.40;;;;;;5071756;28;20036;-75
2021/08/17 09:46:29;;;;;;;6.63;3.53;;;19.10;63.40;;;;;;5070797;28;20028;-76
2021/08/17 09:48:56;;;;;;;6.05;3.53;;;19.20;63.40;;;;;;5071818;28;20017;-75
2021/08/17 09:51:35;;;;;;;5.72;3.35;;;19.20;63.40;;;;;;5071174;28;20086;-76
2021/08/17 09:54:15;;;;;;;5.05;3.10;;;19.20;63.40;;;;;;5071729;28;20107;-77
2021/08/17 09:56:42;;;;;;;5.43;3.45;;;19.20;63.30;;;;;;5053618;28;20047;-75
2021/08/17 09:59:09;;;;;;;5.13;3.22;;;19.30;63.30;;;;;;5070236;28;20029;-75
2021/08/17 10:01:35;;;;;;;5.90;3.42;;;19.30;63.20;;;;;;5053335;28;20063;-75
2021/08/17 10:04:02;;;;;;;5.35;3.40;;;19.30;63.20;;;;;;5070127;28;20029;-75
2021/08/17 10:06:29;;;;;;;6.35;3.28;;;19.40;63.20;;;;;;5053554;28;20094;-75
2021/08/17 10:08:57;;;;;;;5.65;3.25;;;19.40;63.20;;;;;;5070176;28;20029;-75
2021/08/17 10:11:23;;;;;;;5.80;3.58;;;19.40;63.20;;;;;;5053170;28;20020;-75
2021/08/17 10:13:50;;;;;;;6.00;3.28;;;19.40;63.10;;;;;;5069500;28;20546;-75
2021/08/17 10:16:17;;;;;;;4.85;3.20;;;19.50;63.20;;;;;;5070764;28;20021;-75
2021/08/17 10:18:45;;;;;;;4.85;3.30;;;19.50;63.20;;;;;;5071022;28;20032;-76
2021/08/17 10:21:16;;;;;;;4.95;3.15;;;19.50;63.10;;;;;;5069953;28;20483;-75
2021/08/17 10:23:45;;;;;;;5.07;3.05;;;19.50;63.00;;;;;;5053638;28;20024;-76
2021/08/17 10:26:31;;;;;;;4.93;2.95;;;19.50;63.60;;;;;;5054832;28;20026;-74
2021/08/17 10:28:57;;;;;;;5.85;3.40;;;19.60;63.10;;;;;;5086022;28;20048;-75
2021/08/17 10:31:30;;;;;;;5.57;3.50;;;19.60;62.90;;;;;;5071351;28;20103;-76
2021/08/17 10:34:08;;;;;;;4.95;3.03;;;19.60;63.00;;;;;;5070601;28;20489;-75
2021/08/17 10:36:37;;;;;;;5.70;3.20;;;19.70;63.00;;;;;;5070440;28;20025;-76
2021/08/17 10:39:25;;;;;;;5.40;3.15;;;19.70;62.90;;;;;;5052586;28;20040;-76
2021/08/17 10:41:52;;;;;;;4.65;2.80;;;19.70;63.10;;;;;;5072651;28;20036;-76
2021/08/17 10:44:33;;;;;;;5.32;3.35;;;19.80;62.90;;;;;;5058674;28;20032;-76
2021/08/17 10:47:04;;;;;;;4.93;3.22;;;19.80;63.00;;;;;;5056741;28;20035;-75
2021/08/17 10:49:35;;;;;;;5.60;3.28;;;19.80;62.90;;;;;;5074478;28;20024;-76
2021/08/17 10:52:06;;;;;;;4.65;2.60;;;19.80;62.80;;;;;;5056794;28;20028;-75
2021/08/17 10:54:33;;;;;;;4.93;2.80;;;19.90;62.90;;;;;;5073648;28;20036;-75
2021/08/17 10:57:20;;;;;;;4.60;2.80;;;19.90;62.90;;;;;;5056290;28;20151;-76
2021/08/17 10:59:50;;;;;;;4.78;2.88;;;19.90;62.90;;;;;;5064290;28;20029;-76
2021/08/17 11:02:22;;;;;;;4.57;2.97;;;19.90;62.70;;;;;;5072588;28;20120;-76
2021/08/17 11:04:49;;;;;;;4.45;3.10;;;20.00;62.80;;;;;;5074607;28;20028;-75
2021/08/17 11:07:28;;;;;;;5.78;3.17;;;20.00;62.70;;;;;;5072536;28;20051;-75
2021/08/17 11:09:56;;;;;;;4.75;2.90;;;20.00;62.70;;;;;;5056768;28;20040;-75
2021/08/17 11:12:30;;;;;;;5.05;2.95;;;20.00;62.60;;;;;;5072337;28;20156;-75
2021/08/17 11:14:56;;;;;;;5.13;2.92;;;20.10;62.70;;;;;;5056660;28;20047;-75
2021/08/17 11:17:21;;;;;;;5.15;2.88;;;20.10;62.50;;;;;;5072992;28;20472;-75
2021/08/17 11:19:49;;;;;;;5.03;2.90;;;20.10;62.50;;;;;;5074587;28;20032;-75
2021/08/17 11:22:21;;;;;;;5.28;3.10;;;20.10;62.50;;;;;;5072153;28;20046;-75
2021/08/17 11:24:53;;;;;;;4.72;2.78;;;20.10;62.50;;;;;;5072077;28;20054;-76
2021/08/17 11:27:41;;;;;;;4.40;2.75;;;20.10;62.40;;;;;;5072174;28;20559;-75
2021/08/17 11:30:16;;;;;;;4.68;2.72;;;20.20;62.60;;;;;;5056475;28;20029;-75
2021/08/17 11:32:45;;;;;;;4.88;2.75;;;20.20;62.80;;;;;;5057913;28;20025;-75
2021/08/17 11:35:16;;;;;;;4.30;2.60;;;20.20;62.40;;;;;;5072929;28;20052;-75
2021/08/17 11:37:48;;;;;;;4.22;2.65;;;20.20;62.40;;;;;;5079333;28;20025;-75
2021/08/17 11:40:16;;;;;;;3.72;2.53;;;20.20;62.40;;;;;;5069231;28;20082;-77
2021/08/17 11:42:51;;;;;;;4.32;2.70;;;20.20;62.40;;;;;;5073209;28;20472;-76
2021/08/17 11:45:20;;;;;;;5.05;2.63;;;20.20;62.40;;;;;;5055729;28;20036;-76
2021/08/17 11:47:47;;;;;;;3.35;2.10;;;20.20;62.40;;;;;;5072495;28;20031;-76
2021/08/17 11:50:17;;;;;;;3.08;2.25;;;20.20;62.40;;;;;;5072261;28;20029;-77
2021/08/17 11:52:51;;;;;;;4.32;2.67;;;20.20;62.40;;;;;;5072114;28;20495;-76
2021/08/17 11:55:25;;;;;;;3.63;2.22;;;20.20;62.40;;;;;;5071861;28;20048;-76
2021/08/17 11:57:51;;;;;;;4.22;2.53;;;20.20;62.40;;;;;;5072578;28;20541;-76
2021/08/17 12:00:19;;;;;;;5.10;2.50;;;20.20;62.40;;;;;;5072043;28;20029;-76
2021/08/17 12:02:51;;;;;;;4.43;2.33;;;20.20;62.40;;;;;;5071613;28;20538;-76
2021/08/17 12:05:20;;;;;;;4.30;2.35;;;20.20;62.50;;;;;;5055135;28;20107;-78
2021/08/17 12:07:49;;;;;;;4.63;2.28;;;20.20;62.60;;;;;;5071660;28;20032;-75
2021/08/17 12:10:25;;;;;;;3.88;2.42;;;20.20;62.60;;;;;;5055435;28;20385;-76
2021/08/17 12:13:14;;;;;;;3.75;2.30;;;20.20;62.60;;;;;;5071560;28;20028;-76
2021/08/17 12:15:49;;;;;;;4.43;2.30;;;20.20;62.80;;;;;;5073130;28;20155;-76
2021/08/17 12:18:18;;;;;;;3.35;2.00;;;20.20;62.80;;;;;;5071639;28;20583;-75
2021/08/17 12:20:56;;;;;;;4.32;2.17;;;20.20;62.80;;;;;;5071542;28;20128;-76
2021/08/17 12:23:30;;;;;;;4.15;2.20;;;20.20;62.90;;;;;;5055130;28;20024;-77
2021/08/17 12:26:35;;;;;;;3.30;2.03;;;20.20;63.60;;;;;;5071209;28;20033;-76
2021/08/17 12:29:11;;;;;;;3.38;2.00;;;20.20;63.00;;;;;;5062158;28;20085;-76
2021/08/17 12:31:38;;;;;;;4.18;2.25;;;20.20;63.00;;;;;;5071518;28;20032;-76
2021/08/17 12:34:08;;;;;;;3.50;2.45;;;20.20;63.00;;;;;;5071137;28;20025;-75
2021/08/17 12:36:37;;;;;;;3.47;2.20;;;20.10;63.00;;;;;;5071132;28;20465;-75
2021/08/17 12:39:22;;;;;;;3.25;2.10;;;20.20;63.00;;;;;;5072268;28;20036;-76
2021/08/17 12:41:56;;;;;;;3.33;2.10;;;20.10;63.10;;;;;;5071629;28;20346;-75
2021/08/17 12:44:24;;;;;;;3.90;2.30;;;20.10;63.00;;;;;;5038024;28;20025;-76
2021/08/17 12:47:26;;;;;;;3.10;2.10;;;20.10;62.90;;;;;;5054559;28;20498;-76
2021/08/17 12:49:58;;;;;;;2.92;2.00;;;20.10;63.10;;;;;;5072243;28;20025;-76
2021/08/17 12:52:41;;;;;;;2.72;1.80;;;20.10;62.90;;;;;;5070697;28;20413;-76